createdAt,value
2022-08-26T00:00:03.759Z,5.90
2022-08-26T00:01:05.505Z,5.32
2022-08-26T00:02:07.910Z,5.47
2022-08-26T00:03:09.650Z,5.03
2022-08-26T00:04:11.864Z,5.38
2022-08-26T00:05:13.676Z,5.47
2022-08-26T00:06:15.288Z,5.45
2022-08-26T00:07:22.554Z,5.18
2022-08-26T00:08:24.442Z,4.75
2022-08-26T00:09:26.122Z,5.40
2022-08-26T00:10:27.808Z,5.40
2022-08-26T00:11:29.466Z,5.35
2022-08-26T00:12:37.324Z,5.33
2022-08-26T00:13:39.644Z,5.25
2022-08-26T00:14:49.736Z,5.05
2022-08-26T00:15:51.729Z,4.60
2022-08-26T00:16:53.399Z,5.35
2022-08-26T00:17:56.901Z,5.28
2022-08-26T00:18:58.645Z,5.30
2022-08-26T00:20:00.435Z,4.90
2022-08-26T00:21:06.208Z,5.22
2022-08-26T00:22:08.323Z,4.78
2022-08-26T00:23:09.938Z,4.77
2022-08-26T00:24:12.020Z,5.00
2022-08-26T00:25:14.030Z,5.43
2022-08-26T00:26:18.469Z,5.25
2022-08-26T00:27:20.129Z,5.63
2022-08-26T00:28:22.567Z,5.38
2022-08-26T00:29:25.591Z,4.70
2022-08-26T00:30:28.857Z,5.78
2022-08-26T00:31:32.607Z,5.65
2022-08-26T00:32:34.264Z,5.55
2022-08-26T00:33:36.252Z,5.00
2022-08-26T00:34:38.164Z,5.03
2022-08-26T00:35:39.781Z,5.30
2022-08-26T00:36:47.459Z,5.75
2022-08-26T00:37:51.415Z,4.82
2022-08-26T00:38:53.322Z,5.50
2022-08-26T00:39:55.010Z,5.38
2022-08-26T00:41:02.236Z,5.15
2022-08-26T00:42:04.063Z,5.07
2022-08-26T00:43:07.079Z,5.13
2022-08-26T00:44:11.331Z,4.90
2022-08-26T00:45:13.221Z,5.28
2022-08-26T00:46:28.881Z,5.07
2022-08-26T00:48:08.933Z,5.63
2022-08-26T00:49:18.161Z,5.03
2022-08-26T00:50:22.725Z,5.90
2022-08-26T00:51:29.739Z,5.55
2022-08-26T00:52:31.792Z,5.25
2022-08-26T00:53:36.026Z,4.95
2022-08-26T00:54:42.392Z,5.22
2022-08-26T00:55:44.843Z,5.00
2022-08-26T00:56:50.554Z,5.90
2022-08-26T00:57:53.042Z,5.47
2022-08-26T00:58:55.647Z,5.85
2022-08-26T00:59:58.927Z,6.15
2022-08-26T01:01:02.017Z,5.07
2022-08-26T01:02:03.971Z,5.35
2022-08-26T01:03:05.949Z,5.25
2022-08-26T01:04:14.357Z,5.78
2022-08-26T01:05:16.227Z,5.45
2022-08-26T01:06:17.908Z,5.17
2022-08-26T01:07:20.361Z,5.07
2022-08-26T01:08:24.424Z,5.18
2022-08-26T01:09:26.088Z,5.30
2022-08-26T01:10:29.074Z,5.53
2022-08-26T01:11:31.231Z,5.75
2022-08-26T01:12:34.302Z,5.82
2022-08-26T01:13:36.535Z,5.90
2022-08-26T01:14:38.174Z,5.20
2022-08-26T01:15:46.140Z,5.25
2022-08-26T01:16:48.090Z,5.20
2022-08-26T01:17:50.696Z,5.40
2022-08-26T01:18:55.439Z,5.30
2022-08-26T01:20:01.426Z,5.35
2022-08-26T01:21:27.290Z,5.53
2022-08-26T01:22:53.026Z,5.20
2022-08-26T01:23:57.438Z,5.28
2022-08-26T01:24:59.510Z,5.20
2022-08-26T01:26:05.420Z,5.15
2022-08-26T01:27:09.876Z,6.57
2022-08-26T01:28:15.135Z,5.67
2022-08-26T01:29:19.203Z,5.45
2022-08-26T01:30:22.168Z,5.30
2022-08-26T01:31:25.964Z,5.22
2022-08-26T01:32:28.405Z,4.97
2022-08-26T01:33:40.010Z,5.30
2022-08-26T01:34:44.242Z,5.00
2022-08-26T01:35:46.228Z,5.32
2022-08-26T01:36:51.665Z,5.43
2022-08-26T01:37:54.443Z,5.63
2022-08-26T01:38:56.260Z,5.23
2022-08-26T01:39:57.989Z,5.88
2022-08-26T01:41:00.720Z,5.60
2022-08-26T01:42:03.415Z,5.32
2022-08-26T01:43:07.370Z,5.35
2022-08-26T01:44:09.831Z,5.72
2022-08-26T01:45:14.831Z,4.90
2022-08-26T01:46:16.482Z,5.45
2022-08-26T01:47:18.307Z,5.47
2022-08-26T01:48:21.332Z,5.25
2022-08-26T01:49:23.312Z,5.63
2022-08-26T01:50:30.723Z,5.60
2022-08-26T01:51:32.568Z,5.20
2022-08-26T01:52:34.212Z,6.10
2022-08-26T01:53:36.819Z,6.72
2022-08-26T01:54:38.499Z,6.15
2022-08-26T01:55:43.148Z,5.97
2022-08-26T01:56:44.822Z,5.57
2022-08-26T01:57:47.895Z,5.50
2022-08-26T01:58:54.241Z,6.18
2022-08-26T01:59:57.329Z,5.10
2022-08-26T02:00:59.327Z,5.57
2022-08-26T02:02:01.265Z,5.32
2022-08-26T02:03:18.177Z,5.65
2022-08-26T02:04:24.828Z,5.40
2022-08-26T02:05:26.452Z,5.20
2022-08-26T02:06:28.256Z,5.47
2022-08-26T02:07:29.930Z,5.55
2022-08-26T02:08:42.275Z,6.30
2022-08-26T02:09:43.937Z,5.70
2022-08-26T02:10:45.774Z,5.80
2022-08-26T02:11:47.817Z,5.65
2022-08-26T02:12:50.245Z,5.57
2022-08-26T02:13:55.681Z,5.85
2022-08-26T02:14:58.629Z,5.35
2022-08-26T02:16:00.873Z,5.38
2022-08-26T02:17:03.649Z,5.68
2022-08-26T02:18:09.751Z,5.88
2022-08-26T02:19:20.971Z,5.90
2022-08-26T02:20:26.485Z,5.88
2022-08-26T02:21:29.144Z,5.97
2022-08-26T02:22:32.425Z,5.90
2022-08-26T02:23:34.175Z,5.05
2022-08-26T02:25:08.198Z,5.88
2022-08-26T02:26:16.507Z,5.85
2022-08-26T02:27:28.213Z,5.68
2022-08-26T02:28:39.189Z,5.82
2022-08-26T02:29:43.341Z,5.93
2022-08-26T02:30:45.092Z,6.53
2022-08-26T02:31:48.529Z,5.82
2022-08-26T02:32:51.570Z,6.07
2022-08-26T02:33:53.190Z,5.57
2022-08-26T02:34:54.818Z,5.65
2022-08-26T02:35:56.496Z,5.95
2022-08-26T02:37:03.000Z,5.72
2022-08-26T02:38:10.225Z,5.70
2022-08-26T02:39:15.054Z,5.57
2022-08-26T02:40:22.704Z,6.60
2022-08-26T02:41:24.409Z,7.07
2022-08-26T02:42:26.348Z,7.10
2022-08-26T02:43:32.691Z,6.77
2022-08-26T02:44:34.594Z,6.97
2022-08-26T02:45:36.437Z,6.45
2022-08-26T02:46:39.319Z,6.95
2022-08-26T02:47:41.468Z,6.90
2022-08-26T02:48:43.078Z,6.57
2022-08-26T02:49:44.851Z,6.50
2022-08-26T02:50:49.324Z,5.93
2022-08-26T02:51:51.435Z,6.22
2022-08-26T02:52:53.728Z,6.82
2022-08-26T02:53:55.352Z,6.40
2022-08-26T02:54:57.303Z,6.13
2022-08-26T02:55:59.018Z,6.80
2022-08-26T02:57:01.871Z,6.18
2022-08-26T02:58:05.071Z,6.80
2022-08-26T02:59:06.861Z,6.97
2022-08-26T03:00:09.330Z,6.55
2022-08-26T03:01:24.795Z,6.35
2022-08-26T03:02:27.547Z,5.93
2022-08-26T03:03:29.461Z,6.97
2022-08-26T03:04:33.497Z,7.13
2022-08-26T03:05:35.223Z,6.45
2022-08-26T03:06:37.251Z,6.60
2022-08-26T03:07:39.433Z,6.30
2022-08-26T03:08:41.220Z,6.60
2022-08-26T03:09:43.516Z,6.75
2022-08-26T03:10:46.535Z,6.75
2022-08-26T03:11:49.787Z,6.93
2022-08-26T03:12:52.255Z,6.43
2022-08-26T03:13:53.996Z,6.53
2022-08-26T03:14:56.296Z,7.23
2022-08-26T03:15:57.961Z,7.13
2022-08-26T03:17:00.424Z,7.15
2022-08-26T03:18:02.615Z,7.18
2022-08-26T03:19:05.992Z,7.20
2022-08-26T03:20:10.778Z,7.47
2022-08-26T03:21:16.985Z,7.43
2022-08-26T03:22:19.971Z,7.28
2022-08-26T03:23:22.201Z,7.68
2022-08-26T03:24:23.892Z,7.55
2022-08-26T03:25:26.995Z,7.23
2022-08-26T03:26:28.953Z,7.28
2022-08-26T03:27:31.207Z,7.50
2022-08-26T03:28:34.560Z,7.55
2022-08-26T03:29:55.596Z,7.63
2022-08-26T03:30:57.855Z,6.60
2022-08-26T03:32:01.690Z,6.95
2022-08-26T03:33:03.857Z,6.65
2022-08-26T03:34:05.751Z,6.68
2022-08-26T03:35:07.583Z,6.47
2022-08-26T03:36:09.206Z,6.73
2022-08-26T03:37:10.829Z,6.50
2022-08-26T03:38:12.964Z,6.90
2022-08-26T03:39:14.676Z,7.07
2022-08-26T03:40:16.418Z,6.32
2022-08-26T03:41:22.008Z,6.60
2022-08-26T03:42:23.776Z,6.47
2022-08-26T03:43:26.874Z,6.55
2022-08-26T03:44:28.936Z,7.10
2022-08-26T03:45:30.592Z,6.50
2022-08-26T03:46:35.691Z,6.23
2022-08-26T03:47:38.365Z,7.00
2022-08-26T03:48:40.035Z,6.57
2022-08-26T03:49:42.812Z,7.65
2022-08-26T03:50:44.468Z,7.03
2022-08-26T03:51:47.252Z,7.03
2022-08-26T03:52:49.427Z,7.43
2022-08-26T03:53:51.065Z,7.53
2022-08-26T03:54:52.745Z,7.43
2022-08-26T03:55:54.377Z,7.05
2022-08-26T03:56:55.992Z,7.40
2022-08-26T03:57:59.317Z,7.55
2022-08-26T03:59:01.158Z,7.65
2022-08-26T04:00:06.080Z,7.80
2022-08-26T04:01:07.878Z,7.22
2022-08-26T04:02:11.620Z,7.72
2022-08-26T04:03:33.565Z,7.85
2022-08-26T04:04:35.435Z,7.90
2022-08-26T04:05:37.077Z,7.40
2022-08-26T04:06:44.531Z,7.20
2022-08-26T04:07:46.748Z,7.20
2022-08-26T04:08:50.309Z,7.75
2022-08-26T04:09:58.272Z,8.00
2022-08-26T04:11:01.311Z,8.38
2022-08-26T04:12:03.995Z,7.32
2022-08-26T04:13:06.612Z,7.18
2022-08-26T04:14:10.406Z,7.43
2022-08-26T04:15:13.518Z,7.28
2022-08-26T04:16:16.739Z,7.28
2022-08-26T04:17:19.531Z,6.63
2022-08-26T04:18:32.645Z,7.37
2022-08-26T04:19:38.755Z,6.97
2022-08-26T04:20:40.378Z,7.22
2022-08-26T04:21:42.193Z,6.70
2022-08-26T04:22:45.200Z,7.22
2022-08-26T04:23:47.433Z,7.25
2022-08-26T04:24:49.701Z,7.20
2022-08-26T04:25:51.640Z,7.78
2022-08-26T04:26:53.959Z,7.38
2022-08-26T04:27:55.579Z,7.07
2022-08-26T04:28:57.185Z,7.40
2022-08-26T04:30:01.066Z,7.45
2022-08-26T04:31:02.820Z,7.32
2022-08-26T04:32:04.548Z,7.82
2022-08-26T04:33:12.933Z,7.50
2022-08-26T04:34:15.320Z,7.68
2022-08-26T04:35:17.392Z,7.53
2022-08-26T04:36:19.781Z,7.22
2022-08-26T04:37:21.928Z,7.70
2022-08-26T04:38:24.393Z,7.50
2022-08-26T04:39:27.787Z,6.90
2022-08-26T04:40:29.636Z,7.45
2022-08-26T04:41:31.722Z,7.55
2022-08-26T04:42:33.477Z,7.00
2022-08-26T04:43:37.360Z,7.38
2022-08-26T04:44:41.177Z,7.40
2022-08-26T04:45:43.734Z,6.93
2022-08-26T04:46:45.456Z,6.97
2022-08-26T04:47:47.341Z,7.00
2022-08-26T04:48:51.753Z,6.82
2022-08-26T04:49:57.473Z,6.67
2022-08-26T04:51:00.140Z,6.50
2022-08-26T04:52:01.808Z,6.25
2022-08-26T04:53:04.522Z,6.05
2022-08-26T04:54:08.728Z,6.43
2022-08-26T04:55:10.406Z,6.38
2022-08-26T04:56:12.934Z,5.85
2022-08-26T04:57:14.563Z,6.03
2022-08-26T04:58:17.840Z,6.22
2022-08-26T04:59:19.970Z,6.15
2022-08-26T05:00:23.422Z,5.97
2022-08-26T05:01:28.413Z,5.63
2022-08-26T05:02:31.637Z,5.50
2022-08-26T05:03:35.443Z,5.70
2022-08-26T05:04:37.717Z,5.45
2022-08-26T05:05:43.602Z,5.63
2022-08-26T05:06:45.268Z,6.05
2022-08-26T05:07:46.873Z,6.03
2022-08-26T05:08:51.565Z,5.15
2022-08-26T05:09:54.677Z,5.55
2022-08-26T05:10:56.510Z,4.70
2022-08-26T05:11:58.253Z,4.97
2022-08-26T05:13:00.329Z,5.18
2022-08-26T05:14:02.492Z,5.47
2022-08-26T05:15:04.580Z,5.72
2022-08-26T05:16:09.092Z,5.40
2022-08-26T05:17:15.171Z,4.65
2022-08-26T05:18:18.232Z,5.40
2022-08-26T05:19:21.673Z,4.40
2022-08-26T05:20:25.730Z,4.80
2022-08-26T05:21:29.950Z,4.93
2022-08-26T05:22:31.640Z,5.82
2022-08-26T05:23:35.372Z,5.65
2022-08-26T05:24:37.247Z,5.50
2022-08-26T05:25:41.947Z,5.30
2022-08-26T05:26:44.651Z,5.25
2022-08-26T05:27:47.018Z,5.78
2022-08-26T05:28:49.218Z,6.05
2022-08-26T05:29:54.678Z,5.38
2022-08-26T05:30:56.543Z,5.68
2022-08-26T05:31:58.320Z,5.13
2022-08-26T05:32:59.981Z,5.50
2022-08-26T05:34:03.633Z,5.75
2022-08-26T05:35:08.886Z,5.70
2022-08-26T05:36:16.124Z,6.05
2022-08-26T05:37:17.806Z,5.80
2022-08-26T05:38:20.640Z,5.18
2022-08-26T05:39:23.598Z,5.72
2022-08-26T05:40:25.393Z,4.82
2022-08-26T05:41:34.483Z,5.30
2022-08-26T05:42:38.303Z,4.77
2022-08-26T05:43:40.065Z,5.60
2022-08-26T05:44:54.121Z,5.70
2022-08-26T05:46:05.726Z,5.32
2022-08-26T05:47:07.615Z,5.20
2022-08-26T05:48:10.470Z,4.85
2022-08-26T05:49:13.416Z,5.13
2022-08-26T05:50:15.524Z,5.18
2022-08-26T05:51:17.666Z,4.55
2022-08-26T05:52:19.671Z,5.35
2022-08-26T05:53:21.816Z,5.00
2022-08-26T05:54:23.527Z,5.00
2022-08-26T05:55:25.479Z,5.45
2022-08-26T05:56:27.932Z,4.70
2022-08-26T05:57:30.003Z,5.18
2022-08-26T05:58:31.695Z,4.75
2022-08-26T05:59:33.406Z,4.43
2022-08-26T06:00:37.584Z,5.60
2022-08-26T06:01:39.769Z,5.03
2022-08-26T06:02:41.487Z,4.50
2022-08-26T06:03:44.955Z,4.10
2022-08-26T06:04:47.453Z,5.17
2022-08-26T06:05:49.176Z,4.82
2022-08-26T06:06:50.970Z,4.45
2022-08-26T06:08:11.164Z,4.18
2022-08-26T06:09:12.877Z,4.28
2022-08-26T06:10:31.438Z,23.08
2022-08-26T06:11:34.087Z,5.75
2022-08-26T06:12:36.052Z,6.20
2022-08-26T06:13:38.067Z,4.10
2022-08-26T06:14:40.515Z,4.20
2022-08-26T06:15:43.735Z,4.03
2022-08-26T06:16:46.036Z,4.10
2022-08-26T06:17:48.489Z,4.50
2022-08-26T06:18:51.035Z,4.25
2022-08-26T06:19:52.642Z,3.88
2022-08-26T06:20:58.027Z,4.63
2022-08-26T06:22:23.380Z,4.00
2022-08-26T06:23:44.579Z,4.55
2022-08-26T06:25:04.606Z,4.82
2022-08-26T06:26:07.660Z,3.83
2022-08-26T06:27:15.244Z,4.60
2022-08-26T06:28:17.572Z,4.82
2022-08-26T06:29:24.362Z,5.03
2022-08-26T06:30:26.390Z,4.57
2022-08-26T06:31:28.613Z,4.55
2022-08-26T06:32:30.987Z,4.47
2022-08-26T06:33:32.642Z,4.57
2022-08-26T06:34:34.516Z,4.78
2022-08-26T06:35:38.132Z,4.70
2022-08-26T06:36:41.057Z,4.87
2022-08-26T06:37:45.677Z,4.70
2022-08-26T06:38:48.354Z,4.93
2022-08-26T06:39:49.974Z,4.60
2022-08-26T06:40:53.361Z,5.22
2022-08-26T06:41:56.178Z,4.63
2022-08-26T06:42:58.338Z,4.88
2022-08-26T06:44:00.629Z,4.70
2022-08-26T06:45:02.323Z,4.97
2022-08-26T06:46:08.079Z,4.85
2022-08-26T06:47:10.805Z,5.30
2022-08-26T06:48:13.960Z,5.47
2022-08-26T06:49:15.943Z,4.30
2022-08-26T06:50:19.197Z,4.93
2022-08-26T06:51:23.572Z,4.47
2022-08-26T06:52:25.381Z,4.68
2022-08-26T06:53:27.580Z,4.40
2022-08-26T06:54:31.701Z,4.68
2022-08-26T06:55:34.288Z,4.78
2022-08-26T06:56:38.053Z,4.63
2022-08-26T06:57:41.147Z,4.70
2022-08-26T06:58:43.662Z,4.90
2022-08-26T06:59:45.369Z,4.63
2022-08-26T07:00:47.483Z,4.05
2022-08-26T07:01:49.730Z,4.10
2022-08-26T07:02:51.654Z,4.20
2022-08-26T07:03:55.197Z,4.18
2022-08-26T07:04:58.774Z,4.13
2022-08-26T07:06:04.026Z,4.28
2022-08-26T07:07:06.943Z,4.32
2022-08-26T07:08:11.341Z,4.50
2022-08-26T07:09:12.940Z,4.07
2022-08-26T07:10:15.853Z,4.28
2022-08-26T07:11:18.276Z,4.38
2022-08-26T07:12:21.869Z,3.65
2022-08-26T07:13:30.554Z,3.85
2022-08-26T07:14:34.149Z,3.92
2022-08-26T07:15:42.122Z,4.20
2022-08-26T07:16:43.878Z,4.03
2022-08-26T07:17:45.604Z,3.63
2022-08-26T07:18:48.592Z,3.37
2022-08-26T07:19:51.646Z,4.07
2022-08-26T07:20:54.285Z,3.72
2022-08-26T07:21:55.976Z,4.75
2022-08-26T07:22:59.003Z,4.32
2022-08-26T07:24:00.664Z,3.47
2022-08-26T07:25:07.515Z,3.20
2022-08-26T07:26:17.587Z,3.88
2022-08-26T07:27:19.326Z,3.78
2022-08-26T07:28:23.036Z,3.58
2022-08-26T07:29:25.134Z,4.10
2022-08-26T07:30:27.341Z,3.63
2022-08-26T07:31:33.571Z,4.15
2022-08-26T07:32:39.019Z,3.70
2022-08-26T07:33:41.014Z,3.60
2022-08-26T07:34:42.831Z,3.22
2022-08-26T07:35:45.358Z,3.63
2022-08-26T07:36:46.959Z,3.70
2022-08-26T07:37:55.079Z,3.75
2022-08-26T07:38:59.233Z,3.33
2022-08-26T07:40:00.988Z,3.13
2022-08-26T07:41:02.823Z,3.57
2022-08-26T07:42:07.439Z,3.33
2022-08-26T07:43:09.975Z,2.80
2022-08-26T07:44:12.299Z,2.88
2022-08-26T07:45:14.041Z,3.95
2022-08-26T07:46:27.195Z,3.53
2022-08-26T07:47:31.720Z,3.55
2022-08-26T07:48:33.510Z,3.42
2022-08-26T07:49:35.806Z,3.58
2022-08-26T07:50:50.068Z,3.40
2022-08-26T07:51:53.246Z,3.50
2022-08-26T07:52:56.156Z,3.35
2022-08-26T07:53:57.880Z,6.57
2022-08-26T07:55:00.624Z,3.70
2022-08-26T07:56:02.874Z,3.22
2022-08-26T07:57:05.218Z,4.55
2022-08-26T07:58:11.044Z,3.20
2022-08-26T07:59:13.957Z,3.20
2022-08-26T08:00:16.959Z,3.47
2022-08-26T08:01:19.861Z,3.10
2022-08-26T08:02:21.587Z,3.30
2022-08-26T08:03:23.260Z,3.08
2022-08-26T08:04:26.616Z,3.38
2022-08-26T08:05:33.741Z,3.15
2022-08-26T08:06:35.566Z,3.63
2022-08-26T08:07:44.249Z,3.75
2022-08-26T08:08:47.417Z,3.67
2022-08-26T08:09:51.267Z,3.38
2022-08-26T08:10:52.888Z,4.07
2022-08-26T08:11:54.990Z,3.50
2022-08-26T08:12:57.505Z,3.40
2022-08-26T08:14:01.138Z,3.22
2022-08-26T08:15:03.162Z,3.63
2022-08-26T08:16:05.539Z,3.20
2022-08-26T08:17:07.357Z,3.17
2022-08-26T08:18:15.225Z,3.22
2022-08-26T08:19:18.180Z,3.47
2022-08-26T08:20:20.011Z,3.80
2022-08-26T08:21:23.892Z,3.42
2022-08-26T08:22:25.986Z,3.77
2022-08-26T08:23:29.204Z,3.40
2022-08-26T08:24:33.389Z,3.63
2022-08-26T08:25:35.083Z,3.90
2022-08-26T08:26:36.711Z,3.55
2022-08-26T08:27:38.770Z,3.72
2022-08-26T08:28:40.858Z,3.20
2022-08-26T08:29:43.234Z,3.50
2022-08-26T08:30:44.946Z,3.60
2022-08-26T08:31:58.341Z,3.50
2022-08-26T08:33:00.398Z,3.73
2022-08-26T08:34:02.058Z,3.40
2022-08-26T08:35:11.151Z,3.42
2022-08-26T08:36:18.423Z,3.70
2022-08-26T08:37:23.062Z,3.40
2022-08-26T08:38:25.524Z,3.38
2022-08-26T08:39:28.011Z,3.55
2022-08-26T08:40:29.719Z,4.00
2022-08-26T08:42:00.240Z,3.47
2022-08-26T08:43:04.028Z,4.10
2022-08-26T08:44:10.060Z,3.40
2022-08-26T08:45:15.605Z,3.30
2022-08-26T08:46:20.273Z,3.63
2022-08-26T08:47:47.469Z,3.78
2022-08-26T08:48:52.694Z,3.15
2022-08-26T08:49:58.845Z,3.70
2022-08-26T08:51:23.487Z,3.42
2022-08-26T08:52:27.641Z,3.60
2022-08-26T08:53:39.494Z,3.60
2022-08-26T08:54:42.180Z,3.92
2022-08-26T08:56:04.141Z,3.50
2022-08-26T08:57:09.453Z,3.33
2022-08-26T08:58:16.165Z,3.75
2022-08-26T08:59:23.021Z,3.55
2022-08-26T09:00:30.583Z,3.63
2022-08-26T09:01:55.690Z,3.65
2022-08-26T09:03:00.038Z,4.13
2022-08-26T09:04:24.273Z,3.75
2022-08-26T09:05:40.241Z,3.58
2022-08-26T09:06:42.175Z,3.28
2022-08-26T09:08:01.439Z,3.30
2022-08-26T09:09:03.591Z,4.30
2022-08-26T09:10:34.147Z,3.80
2022-08-26T09:11:36.902Z,3.70
2022-08-26T09:12:38.568Z,3.58
2022-08-26T09:13:40.289Z,4.15
2022-08-26T09:14:45.113Z,3.67
2022-08-26T09:15:48.728Z,3.83
2022-08-26T09:17:09.262Z,3.80
2022-08-26T09:18:48.829Z,3.50
2022-08-26T09:19:55.908Z,3.70
2022-08-26T09:21:03.526Z,4.37
2022-08-26T09:22:09.428Z,3.70
2022-08-26T09:23:11.724Z,3.67
2022-08-26T09:24:13.852Z,3.35
2022-08-26T09:25:15.875Z,3.90
2022-08-26T09:26:21.432Z,4.07
2022-08-26T09:27:50.728Z,3.90
2022-08-26T09:29:00.605Z,5.57
2022-08-26T09:30:02.242Z,3.88
2022-08-26T09:31:14.386Z,3.77
2022-08-26T09:32:25.422Z,3.90
2022-08-26T09:33:28.818Z,3.65
2022-08-26T09:34:31.938Z,3.85
2022-08-26T09:35:38.686Z,3.80
2022-08-26T09:36:41.705Z,3.83
2022-08-26T09:38:52.581Z,3.88
2022-08-26T09:39:54.234Z,3.67
2022-08-26T09:41:06.731Z,3.50
2022-08-26T09:42:23.715Z,4.17
2022-08-26T09:43:25.758Z,3.93
2022-08-26T09:44:27.379Z,3.28
2022-08-26T09:45:29.070Z,4.32
2022-08-26T09:46:31.877Z,4.10
2022-08-26T09:48:01.483Z,4.15
2022-08-26T09:49:32.694Z,3.60
2022-08-26T09:50:52.778Z,3.42
2022-08-26T09:52:23.948Z,3.95
2022-08-26T09:53:34.469Z,4.05
2022-08-26T09:54:36.309Z,3.73
2022-08-26T09:55:39.797Z,9.27
2022-08-26T09:56:41.777Z,4.07
2022-08-26T09:57:54.174Z,3.90
2022-08-26T09:58:56.913Z,3.92
2022-08-26T10:00:01.059Z,3.80
2022-08-26T10:01:06.395Z,3.92
2022-08-26T10:02:47.543Z,3.85
2022-08-26T10:03:49.700Z,4.35
2022-08-26T10:04:52.178Z,3.75
2022-08-26T10:06:01.466Z,3.43
2022-08-26T10:07:05.216Z,3.67
2022-08-26T10:08:37.604Z,4.03
2022-08-26T10:09:40.037Z,3.60
2022-08-26T10:10:41.781Z,4.25
2022-08-26T10:11:54.462Z,4.05
2022-08-26T10:13:11.086Z,3.90
2022-08-26T10:14:21.722Z,4.10
2022-08-26T10:15:23.846Z,4.32
2022-08-26T10:16:29.631Z,3.70
2022-08-26T10:17:47.682Z,3.47
2022-08-26T10:18:59.922Z,3.60
2022-08-26T10:20:23.220Z,3.80
2022-08-26T10:22:06.101Z,3.90
2022-08-26T10:23:14.102Z,3.72
2022-08-26T10:24:18.298Z,4.30
2022-08-26T10:25:26.057Z,3.75
2022-08-26T10:26:34.009Z,3.78
2022-08-26T10:28:11.170Z,3.55
2022-08-26T10:29:13.046Z,3.75
2022-08-26T10:30:19.318Z,4.00
2022-08-26T10:31:40.938Z,4.00
2022-08-26T10:32:48.416Z,4.15
2022-08-26T10:33:50.823Z,3.35
2022-08-26T10:34:53.510Z,3.15
2022-08-26T10:35:58.547Z,3.40
2022-08-26T10:37:16.724Z,3.75
2022-08-26T10:38:22.145Z,3.92
2022-08-26T10:39:29.139Z,3.40
2022-08-26T10:40:31.237Z,3.60
2022-08-26T10:41:36.309Z,3.93
2022-08-26T10:43:00.624Z,3.47
2022-08-26T10:44:02.358Z,3.67
2022-08-26T10:45:11.920Z,3.40
2022-08-26T10:46:20.465Z,3.42
2022-08-26T10:47:26.401Z,3.70
2022-08-26T10:48:49.260Z,3.60
2022-08-26T10:49:57.515Z,3.53
2022-08-26T10:51:03.241Z,3.92
2022-08-26T10:52:53.268Z,4.00
2022-08-26T10:54:13.577Z,3.97
2022-08-26T10:55:23.346Z,3.50
2022-08-26T10:56:41.318Z,3.40
2022-08-26T10:57:49.503Z,3.20
2022-08-26T10:59:21.019Z,4.20
2022-08-26T11:00:51.501Z,3.72
2022-08-26T11:02:24.904Z,3.42
2022-08-26T11:03:55.680Z,4.40
2022-08-26T11:05:05.554Z,4.15
2022-08-26T11:06:21.509Z,3.58
2022-08-26T11:07:36.412Z,3.63
2022-08-26T11:08:47.656Z,3.77
2022-08-26T11:09:49.726Z,3.63
2022-08-26T11:10:58.833Z,3.80
2022-08-26T11:12:05.127Z,4.03
2022-08-26T11:13:12.278Z,3.80
2022-08-26T11:14:29.300Z,3.40
2022-08-26T11:15:32.358Z,4.40
2022-08-26T11:16:42.784Z,3.80
2022-08-26T11:17:45.266Z,3.78
2022-08-26T11:18:48.724Z,4.00
2022-08-26T11:20:01.493Z,3.83
2022-08-26T11:21:30.484Z,3.33
2022-08-26T11:22:33.692Z,3.13
2022-08-26T11:23:45.439Z,3.55
2022-08-26T11:24:54.956Z,4.00
2022-08-26T11:25:57.062Z,3.80
2022-08-26T11:26:59.131Z,3.25
2022-08-26T11:28:01.747Z,3.33
2022-08-26T11:29:03.461Z,2.90
2022-08-26T11:30:28.459Z,3.40
2022-08-26T11:31:30.659Z,3.33
2022-08-26T11:32:39.535Z,3.58
2022-08-26T11:33:44.206Z,3.70
2022-08-26T11:34:57.889Z,4.20
2022-08-26T11:35:59.980Z,3.80
2022-08-26T11:37:14.224Z,3.30
2022-08-26T11:38:26.459Z,3.78
2022-08-26T11:39:31.067Z,3.47
2022-08-26T11:40:38.632Z,3.70
2022-08-26T11:41:43.911Z,2.90
2022-08-26T11:42:49.158Z,3.67
2022-08-26T11:43:52.339Z,3.17
2022-08-26T11:44:54.103Z,3.50
2022-08-26T11:46:02.843Z,3.13
2022-08-26T11:47:04.849Z,3.42
2022-08-26T11:48:22.415Z,3.78
2022-08-26T11:49:27.052Z,3.70
2022-08-26T11:50:28.752Z,3.85
2022-08-26T11:51:32.907Z,3.70
2022-08-26T11:52:34.572Z,3.90
2022-08-26T11:53:38.059Z,3.77
2022-08-26T11:54:39.943Z,3.45
2022-08-26T11:55:42.920Z,3.55
2022-08-26T11:56:46.061Z,4.45
2022-08-26T11:57:49.898Z,3.58
2022-08-26T11:58:53.388Z,3.63
2022-08-26T11:59:55.099Z,3.80
2022-08-26T12:01:05.477Z,3.50
2022-08-26T12:02:14.789Z,3.75
2022-08-26T12:03:31.675Z,4.20
2022-08-26T12:04:34.575Z,4.07
2022-08-26T12:05:39.513Z,3.80
2022-08-26T12:06:48.103Z,3.90
2022-08-26T12:07:50.888Z,3.83
2022-08-26T12:08:56.691Z,3.63
2022-08-26T12:10:00.325Z,3.28
2022-08-26T12:11:09.229Z,4.25
2022-08-26T12:12:15.029Z,3.30
2022-08-26T12:13:26.278Z,3.90
2022-08-26T12:14:28.730Z,3.73
2022-08-26T12:15:31.286Z,4.27
2022-08-26T12:16:37.096Z,3.40
2022-08-26T12:17:39.992Z,3.35
2022-08-26T12:18:44.874Z,4.60
2022-08-26T12:19:46.708Z,3.80
2022-08-26T12:20:48.704Z,3.50
2022-08-26T12:21:50.779Z,3.75
2022-08-26T12:22:53.132Z,4.35
2022-08-26T12:23:56.833Z,3.72
2022-08-26T12:24:59.922Z,3.57
2022-08-26T12:26:06.020Z,3.43
2022-08-26T12:27:16.449Z,2.97
2022-08-26T12:28:18.348Z,3.55
2022-08-26T12:29:27.045Z,3.45
2022-08-26T12:30:29.075Z,3.72
2022-08-26T12:31:40.874Z,3.60
2022-08-26T12:32:57.218Z,3.13
2022-08-26T12:34:01.578Z,3.15
2022-08-26T12:36:08.523Z,2.80
2022-08-26T12:37:11.981Z,2.87
2022-08-26T12:38:13.835Z,3.45
2022-08-26T12:39:26.748Z,3.13
2022-08-26T12:40:31.080Z,3.05
2022-08-26T12:41:47.761Z,2.90
2022-08-26T12:42:50.117Z,2.75
2022-08-26T12:43:51.808Z,2.90
2022-08-26T12:45:01.438Z,3.55
2022-08-26T12:46:06.658Z,3.22
2022-08-26T12:47:42.174Z,2.80
2022-08-26T12:48:48.151Z,3.30
2022-08-26T12:49:50.035Z,2.90
2022-08-26T12:50:52.117Z,3.47
2022-08-26T12:51:53.836Z,3.40
2022-08-26T12:53:10.789Z,2.80
2022-08-26T12:54:16.088Z,3.38
2022-08-26T12:55:22.891Z,3.58
2022-08-26T12:56:24.480Z,2.85
2022-08-26T12:57:28.031Z,3.25
2022-08-26T12:58:31.790Z,3.60
2022-08-26T12:59:33.579Z,2.70
2022-08-26T13:00:38.137Z,2.55
2022-08-26T13:01:43.098Z,2.95
2022-08-26T13:02:44.937Z,3.03
2022-08-26T13:03:46.784Z,3.17
2022-08-26T13:04:48.453Z,2.53
2022-08-26T13:05:50.116Z,3.25
2022-08-26T13:07:13.273Z,3.03
2022-08-26T13:08:16.845Z,3.53
2022-08-26T13:09:18.519Z,3.50
2022-08-26T13:10:36.867Z,3.20
2022-08-26T13:11:41.279Z,2.95
2022-08-26T13:12:42.975Z,3.45
2022-08-26T13:13:45.711Z,3.55
2022-08-26T13:14:49.045Z,4.18
2022-08-26T13:15:50.765Z,3.40
2022-08-26T13:16:52.848Z,3.10
2022-08-26T13:17:54.531Z,3.33
2022-08-26T13:19:01.843Z,3.60
2022-08-26T13:20:04.565Z,3.17
2022-08-26T13:21:18.626Z,3.10
2022-08-26T13:22:24.277Z,2.80
2022-08-26T13:23:26.501Z,2.92
2022-08-26T13:24:32.576Z,2.97
2022-08-26T13:25:34.358Z,3.72
2022-08-26T13:26:36.100Z,2.83
2022-08-26T13:27:37.734Z,3.03
2022-08-26T13:28:39.416Z,3.17
2022-08-26T13:29:41.592Z,3.10
2022-08-26T13:30:46.083Z,3.60
2022-08-26T13:31:48.015Z,2.70
2022-08-26T13:32:49.989Z,3.03
2022-08-26T13:33:51.664Z,2.95
2022-08-26T13:34:54.143Z,2.88
2022-08-26T13:35:55.880Z,2.80
2022-08-26T13:36:58.414Z,2.92
2022-08-26T13:38:00.113Z,2.75
2022-08-26T13:39:01.880Z,3.15
2022-08-26T13:40:05.025Z,2.95
2022-08-26T13:41:06.829Z,2.77
2022-08-26T13:42:09.085Z,3.17
2022-08-26T13:43:11.119Z,3.25
2022-08-26T13:44:13.497Z,3.20
2022-08-26T13:45:15.226Z,4.30
2022-08-26T13:46:17.041Z,2.80
2022-08-26T13:47:20.729Z,3.40
2022-08-26T13:48:23.527Z,3.50
2022-08-26T13:49:25.358Z,3.15
2022-08-26T13:50:27.016Z,4.03
2022-08-26T13:51:28.878Z,2.83
2022-08-26T13:52:31.190Z,3.23
2022-08-26T13:53:32.937Z,3.17
2022-08-26T13:54:34.626Z,2.80
2022-08-26T13:55:36.322Z,3.05
2022-08-26T13:56:38.177Z,3.05
2022-08-26T13:57:39.873Z,2.95
2022-08-26T13:58:41.573Z,3.10
2022-08-26T13:59:44.061Z,3.00
2022-08-26T14:00:45.803Z,2.97
2022-08-26T14:01:48.817Z,2.53
2022-08-26T14:02:50.525Z,3.03
2022-08-26T14:03:52.548Z,3.40
2022-08-26T14:04:55.370Z,3.00
2022-08-26T14:05:57.046Z,3.38
2022-08-26T14:06:58.769Z,3.38
2022-08-26T14:08:00.531Z,2.90
2022-08-26T14:09:02.237Z,3.00
2022-08-26T14:10:04.068Z,3.03
2022-08-26T14:11:05.859Z,3.30
2022-08-26T14:12:07.750Z,2.83
2022-08-26T14:13:09.605Z,3.10
2022-08-26T14:14:11.429Z,3.13
2022-08-26T14:15:13.317Z,2.80
2022-08-26T14:16:22.141Z,2.78
2022-08-26T14:17:24.654Z,3.35
2022-08-26T14:18:32.306Z,3.00
2022-08-26T14:19:33.986Z,2.72
2022-08-26T14:20:36.118Z,2.80
2022-08-26T14:21:38.028Z,2.92
2022-08-26T14:22:52.078Z,3.43
2022-08-26T14:24:03.413Z,3.27
2022-08-26T14:25:05.666Z,2.85
2022-08-26T14:26:08.496Z,3.22
2022-08-26T14:27:10.750Z,3.20
2022-08-26T14:28:12.429Z,2.67
2022-08-26T14:29:16.207Z,3.50
2022-08-26T14:30:18.738Z,3.00
2022-08-26T14:31:22.398Z,3.10